Terminal Aerodrome Forecast
Issued by NWS

Home | Current Version | Previous Version | Graphics & Text | Print | Product List | Glossary On
Versions: 1 2 3 4 5 6 7 8 9 10 11 12 13 14 15 16 17 18 19 20 21
000
FTUS43 KGRB 261100 RRA
TAFMTW
TAF
KMTW 261151Z 2612/2712 VRB03KT 6SM BR BKN120
     FM261600 VRB03KT 5SM BR BKN020 OVC060
     FM270300 35004KT 6SM BR OVC018
     FM271100 02005KT 5SM -SN BR BKN015=

USA.gov is the U.S. government's official web portal to all federal, state and local government web resources and services.